sensor_id;sensor_type;location;lat;lon;timestamp;temperature;humidity
2387;DHT22;49473;50.772;8.768;2024-01-15T00:00:53;-0.20;99.90
2387;DHT22;49473;50.772;8.768;2024-01-15T00:03:19;-0.20;99.90
2387;DHT22;49473;50.772;8.768;2024-01-15T00:05:46;-0.20;99.90
2387;DHT22;49473;50.772;8.768;2024-01-15T00:08:13;-0.30;99.90
2387;DHT22;49473;50.772;8.768;2024-01-15T00:10:39;-0.30;99.90
2387;DHT22;49473;50.772;8.768;2024-01-15T00:13:07;-0.30;99.90
2387;DHT22;49473;50.772;8.768;2024-01-15T00:15:33;-0.30;99.90
2387;DHT22;49473;50.772;8.768;2024-01-15T00:18:01;-0.30;99.90
2387;DHT22;49473;50.772;8.768;2024-01-15T00:20:28;-0.30;99.90
2387;DHT22;49473;50.772;8.768;2024-01-15T00:22:55;-0.40;99.90
2387;DHT22;49473;50.772;8.768;2024-01-15T00:25:22;-0.40;99.90
2387;DHT22;49473;50.772;8.768;2024-01-15T00:27:49;-0.50;99.90
2387;DHT22;49473;50.772;8.768;2024-01-15T00:30:16;-0.50;99.90
2387;DHT22;49473;50.772;8.768;2024-01-15T00:32:42;-0.40;99.90
2387;DHT22;49473;50.772;8.768;2024-01-15T00:35:10;-0.50;99.90
2387;DHT22;49473;50.772;8.768;2024-01-15T00:37:37;-0.50;99.90
2387;DHT22;49473;50.772;8.768;2024-01-15T00:40:06;-0.50;99.90
2387;DHT22;49473;50.772;8.768;2024-01-15T00:42:33;-0.40;99.90
2387;DHT22;49473;50.772;8.768;2024-01-15T00:45:01;-0.40;99.90
2387;DHT22;49473;50.772;8.768;2024-01-15T00:47:28;-0.40;99.90
2387;DHT22;49473;50.772;8.768;2024-01-15T00:49:54;-0.50;99.90
2387;DHT22;49473;50.772;8.768;2024-01-15T00:52:22;-0.50;99.90
2387;DHT22;49473;50.772;8.768;2024-01-15T00:54:49;-0.50;99.90
2387;DHT22;49473;50.772;8.768;2024-01-15T00:57:16;-0.50;99.90
2387;DHT22;49473;50.772;8.768;2024-01-15T00:59:44;-0.40;99.90
2387;DHT22;49473;50.772;8.768;2024-01-15T01:02:11;-0.40;99.90
2387;DHT22;49473;50.772;8.768;2024-01-15T01:04:37;-0.40;99.90
2387;DHT22;49473;50.772;8.768;2024-01-15T01:07:04;-0.40;99.90
2387;DHT22;49473;50.772;8.768;2024-01-15T01:09:32;-0.40;99.90
2387;DHT22;49473;50.772;8.768;2024-01-15T01:11:59;-0.40;99.90
2387;DHT22;49473;50.772;8.768;2024-01-15T01:14:26;-0.40;99.90
2387;DHT22;49473;50.772;8.768;2024-01-15T01:16:52;-0.40;99.90
2387;DHT22;49473;50.772;8.768;2024-01-15T01:19:19;-0.40;99.90
2387;DHT22;49473;50.772;8.768;2024-01-15T01:21:46;-0.30;99.90
2387;DHT22;49473;50.772;8.768;2024-01-15T01:24:12;-0.30;99.90
2387;DHT22;49473;50.772;8.768;2024-01-15T01:26:40;-0.30;99.90
2387;DHT22;49473;50.772;8.768;2024-01-15T01:29:07;-0.30;99.90
2387;DHT22;49473;50.772;8.768;2024-01-15T01:31:34;-0.30;99.90
2387;DHT22;49473;50.772;8.768;2024-01-15T01:34:00;-0.20;99.90
2387;DHT22;49473;50.772;8.768;2024-01-15T01:36:27;-0.20;99.90
2387;DHT22;49473;50.772;8.768;2024-01-15T01:38:54;-0.20;99.90
2387;DHT22;49473;50.772;8.768;2024-01-15T01:41:20;-0.20;99.90
2387;DHT22;49473;50.772;8.768;2024-01-15T01:43:50;-0.20;99.90
2387;DHT22;49473;50.772;8.768;2024-01-15T01:46:17;-0.10;99.90
2387;DHT22;49473;50.772;8.768;2024-01-15T01:48:43;-0.10;99.90
2387;DHT22;49473;50.772;8.768;2024-01-15T01:51:11;-0.10;99.90
2387;DHT22;49473;50.772;8.768;2024-01-15T01:53:38;0.00;99.90
2387;DHT22;49473;50.772;8.768;2024-01-15T01:56:05;0.00;99.90
2387;DHT22;49473;50.772;8.768;2024-01-15T01:58:33;0.00;99.90
2387;DHT22;49473;50.772;8.768;2024-01-15T02:01:01;-0.10;99.90
2387;DHT22;49473;50.772;8.768;2024-01-15T02:03:29;-0.10;99.90
2387;DHT22;49473;50.772;8.768;2024-01-15T02:05:56;-0.10;99.90
2387;DHT22;49473;50.772;8.768;2024-01-15T02:08:23;-0.10;99.90
2387;DHT22;49473;50.772;8.768;2024-01-15T02:10:50;0.00;99.90
2387;DHT22;49473;50.772;8.768;2024-01-15T02:13:17;-0.10;99.90
2387;DHT22;49473;50.772;8.768;2024-01-15T02:15:44;-0.10;99.90
2387;DHT22;49473;50.772;8.768;2024-01-15T02:18:12;0.00;99.90
2387;DHT22;49473;50.772;8.768;2024-01-15T02:20:39;-0.10;99.90
2387;DHT22;49473;50.772;8.768;2024-01-15T02:23:10;-0.10;99.90
2387;DHT22;49473;50.772;8.768;2024-01-15T02:25:37;-0.10;99.90
2387;DHT22;49473;50.772;8.768;2024-01-15T02:28:05;-0.10;99.90
2387;DHT22;49473;50.772;8.768;2024-01-15T02:30:35;-0.10;99.90
2387;DHT22;49473;50.772;8.768;2024-01-15T02:33:03;-0.10;99.90
2387;DHT22;49473;50.772;8.768;2024-01-15T02:35:30;-0.20;99.90
2387;DHT22;49473;50.772;8.768;2024-01-15T02:37:56;-0.10;99.90
2387;DHT22;49473;50.772;8.768;2024-01-15T02:40:25;-0.10;99.90
2387;DHT22;49473;50.772;8.768;2024-01-15T02:42:51;-0.20;99.90
2387;DHT22;49473;50.772;8.768;2024-01-15T02:45:19;-0.20;99.90
2387;DHT22;49473;50.772;8.768;2024-01-15T02:47:46;-0.20;99.90
2387;DHT22;49473;50.772;8.768;2024-01-15T02:50:12;-0.20;99.90
2387;DHT22;49473;50.772;8.768;2024-01-15T02:52:39;-0.20;99.90
2387;DHT22;49473;50.772;8.768;2024-01-15T02:55:06;-0.10;99.90
2387;DHT22;49473;50.772;8.768;2024-01-15T02:57:34;-0.10;99.90
2387;DHT22;49473;50.772;8.768;2024-01-15T03:00:01;-0.20;99.90
2387;DHT22;49473;50.772;8.768;2024-01-15T03:02:29;-0.20;99.90
2387;DHT22;49473;50.772;8.768;2024-01-15T03:04:56;-0.20;99.90
2387;DHT22;49473;50.772;8.768;2024-01-15T03:07:23;-0.20;99.90
2387;DHT22;49473;50.772;8.768;2024-01-15T03:09:50;-0.20;99.90
2387;DHT22;49473;50.772;8.768;2024-01-15T03:12:16;-0.10;99.90
2387;DHT22;49473;50.772;8.768;2024-01-15T03:14:45;-0.20;99.90
2387;DHT22;49473;50.772;8.768;2024-01-15T03:17:12;-0.20;99.90
2387;DHT22;49473;50.772;8.768;2024-01-15T03:19:38;-0.20;99.90
2387;DHT22;49473;50.772;8.768;2024-01-15T03:22:05;-0.10;99.90
2387;DHT22;49473;50.772;8.768;2024-01-15T03:24:34;-0.10;99.90
2387;DHT22;49473;50.772;8.768;2024-01-15T03:27:01;-0.10;99.90
2387;DHT22;49473;50.772;8.768;2024-01-15T03:29:27;-0.10;99.90
2387;DHT22;49473;50.772;8.768;2024-01-15T03:31:55;-0.10;99.90
2387;DHT22;49473;50.772;8.768;2024-01-15T03:34:22;-0.10;99.90
2387;DHT22;49473;50.772;8.768;2024-01-15T03:36:49;-0.10;99.90
2387;DHT22;49473;50.772;8.768;2024-01-15T03:39:16;-0.10;99.90
2387;DHT22;49473;50.772;8.768;2024-01-15T03:41:42;-0.10;99.90
2387;DHT22;49473;50.772;8.768;2024-01-15T03:44:09;0.00;99.90
2387;DHT22;49473;50.772;8.768;2024-01-15T03:46:36;-0.10;99.90
2387;DHT22;49473;50.772;8.768;2024-01-15T03:49:04;-0.10;99.90
2387;DHT22;49473;50.772;8.768;2024-01-15T03:51:31;-0.10;99.90
2387;DHT22;49473;50.772;8.768;2024-01-15T03:53:58;-0.10;99.90
2387;DHT22;49473;50.772;8.768;2024-01-15T03:56:24;-0.10;99.90
2387;DHT22;49473;50.772;8.768;2024-01-15T03:58:51;0.00;99.90
2387;DHT22;49473;50.772;8.768;2024-01-15T04:01:18;0.00;99.90
2387;DHT22;49473;50.772;8.768;2024-01-15T04:03:45;0.00;99.90
2387;DHT22;49473;50.772;8.768;2024-01-15T04:06:13;0.00;99.90
2387;DHT22;49473;50.772;8.768;2024-01-15T04:08:40;0.10;99.90
2387;DHT22;49473;50.772;8.768;2024-01-15T04:11:07;0.10;99.90
2387;DHT22;49473;50.772;8.768;2024-01-15T04:13:33;0.00;99.90
2387;DHT22;49473;50.772;8.768;2024-01-15T04:16:00;0.10;99.90
2387;DHT22;49473;50.772;8.768;2024-01-15T04:18:27;0.10;99.90
2387;DHT22;49473;50.772;8.768;2024-01-15T04:20:54;0.00;99.90
2387;DHT22;49473;50.772;8.768;2024-01-15T04:23:22;0.00;99.90
2387;DHT22;49473;50.772;8.768;2024-01-15T04:25:48;0.00;99.90
2387;DHT22;49473;50.772;8.768;2024-01-15T04:28:15;0.00;99.90
2387;DHT22;49473;50.772;8.768;2024-01-15T04:30:42;0.00;99.90
2387;DHT22;49473;50.772;8.768;2024-01-15T04:33:09;0.00;99.90
2387;DHT22;49473;50.772;8.768;2024-01-15T04:35:35;0.00;99.90
2387;DHT22;49473;50.772;8.768;2024-01-15T04:38:02;0.00;99.90
2387;DHT22;49473;50.772;8.768;2024-01-15T04:40:30;0.00;99.90
2387;DHT22;49473;50.772;8.768;2024-01-15T04:42:57;0.00;99.90
2387;DHT22;49473;50.772;8.768;2024-01-15T04:45:24;0.00;99.90
2387;DHT22;49473;50.772;8.768;2024-01-15T04:47:54;0.00;99.90
2387;DHT22;49473;50.772;8.768;2024-01-15T04:50:21;0.00;99.90
2387;DHT22;49473;50.772;8.768;2024-01-15T04:52:47;0.00;99.90
2387;DHT22;49473;50.772;8.768;2024-01-15T04:55:14;-0.10;99.90
2387;DHT22;49473;50.772;8.768;2024-01-15T04:57:42;-0.10;99.90
2387;DHT22;49473;50.772;8.768;2024-01-15T05:00:10;0.00;99.90
2387;DHT22;49473;50.772;8.768;2024-01-15T05:02:38;-0.10;99.90
2387;DHT22;49473;50.772;8.768;2024-01-15T05:05:05;-0.10;99.90
2387;DHT22;49473;50.772;8.768;2024-01-15T05:07:32;-0.10;99.90
2387;DHT22;49473;50.772;8.768;2024-01-15T05:09:58;-0.10;99.90
2387;DHT22;49473;50.772;8.768;2024-01-15T05:12:25;-0.10;99.90
2387;DHT22;49473;50.772;8.768;2024-01-15T05:14:53;-0.10;99.90
2387;DHT22;49473;50.772;8.768;2024-01-15T05:17:20;0.00;99.90
2387;DHT22;49473;50.772;8.768;2024-01-15T05:19:46;0.00;99.90
2387;DHT22;49473;50.772;8.768;2024-01-15T05:22:13;0.00;99.90
2387;DHT22;49473;50.772;8.768;2024-01-15T05:24:40;0.00;99.90
2387;DHT22;49473;50.772;8.768;2024-01-15T05:27:06;0.00;99.90
2387;DHT22;49473;50.772;8.768;2024-01-15T05:29:33;0.00;99.90
2387;DHT22;49473;50.772;8.768;2024-01-15T05:32:01;-0.10;99.90
2387;DHT22;49473;50.772;8.768;2024-01-15T05:34:28;-0.10;99.90
2387;DHT22;49473;50.772;8.768;2024-01-15T05:36:54;-0.10;99.90
2387;DHT22;49473;50.772;8.768;2024-01-15T05:39:21;-0.10;99.90
2387;DHT22;49473;50.772;8.768;2024-01-15T05:41:48;-0.10;99.90
2387;DHT22;49473;50.772;8.768;2024-01-15T05:44:14;-0.10;99.90
2387;DHT22;49473;50.772;8.768;2024-01-15T05:46:41;-0.10;99.90
2387;DHT22;49473;50.772;8.768;2024-01-15T05:49:09;-0.10;99.90
2387;DHT22;49473;50.772;8.768;2024-01-15T05:51:36;-0.20;99.90
2387;DHT22;49473;50.772;8.768;2024-01-15T05:54:03;-0.20;99.90
2387;DHT22;49473;50.772;8.768;2024-01-15T05:56:30;-0.20;99.90
2387;DHT22;49473;50.772;8.768;2024-01-15T05:58:56;-0.20;99.90
2387;DHT22;49473;50.772;8.768;2024-01-15T06:01:23;-0.20;99.90
2387;DHT22;49473;50.772;8.768;2024-01-15T06:03:50;-0.10;99.90
2387;DHT22;49473;50.772;8.768;2024-01-15T06:06:18;-0.20;99.90
2387;DHT22;49473;50.772;8.768;2024-01-15T06:08:44;-0.20;99.90
2387;DHT22;49473;50.772;8.768;2024-01-15T06:11:11;-0.20;99.90
2387;DHT22;49473;50.772;8.768;2024-01-15T06:13:38;-0.10;99.90
2387;DHT22;49473;50.772;8.768;2024-01-15T06:16:13;-0.10;99.90
2387;DHT22;49473;50.772;8.768;2024-01-15T06:18:39;0.00;99.90
2387;DHT22;49473;50.772;8.768;2024-01-15T06:21:06;0.00;99.90
2387;DHT22;49473;50.772;8.768;2024-01-15T06:23:37;0.00;99.90
2387;DHT22;49473;50.772;8.768;2024-01-15T06:26:04;-0.10;99.90
2387;DHT22;49473;50.772;8.768;2024-01-15T06:28:30;-0.20;99.90
2387;DHT22;49473;50.772;8.768;2024-01-15T06:30:57;-0.20;99.90
2387;DHT22;49473;50.772;8.768;2024-01-15T06:33:24;-0.20;99.90
2387;DHT22;49473;50.772;8.768;2024-01-15T06:35:51;-0.20;99.90
2387;DHT22;49473;50.772;8.768;2024-01-15T06:38:17;-0.20;99.90
2387;DHT22;49473;50.772;8.768;2024-01-15T06:40:45;-0.20;99.90
2387;DHT22;49473;50.772;8.768;2024-01-15T06:43:13;-0.20;99.90
2387;DHT22;49473;50.772;8.768;2024-01-15T06:45:40;-0.20;99.90
2387;DHT22;49473;50.772;8.768;2024-01-15T06:48:07;-0.20;99.90
2387;DHT22;49473;50.772;8.768;2024-01-15T06:50:34;-0.20;99.90
2387;DHT22;49473;50.772;8.768;2024-01-15T06:53:01;-0.10;99.90
2387;DHT22;49473;50.772;8.768;2024-01-15T06:55:28;-0.10;99.90
2387;DHT22;49473;50.772;8.768;2024-01-15T06:57:56;-0.20;99.90
2387;DHT22;49473;50.772;8.768;2024-01-15T07:00:23;-0.20;99.90
2387;DHT22;49473;50.772;8.768;2024-01-15T07:02:50;-0.10;99.90
2387;DHT22;49473;50.772;8.768;2024-01-15T07:05:17;-0.10;99.90
2387;DHT22;49473;50.772;8.768;2024-01-15T07:07:44;-0.10;99.90
2387;DHT22;49473;50.772;8.768;2024-01-15T07:10:10;-0.10;99.90
2387;DHT22;49473;50.772;8.768;2024-01-15T07:12:37;-0.10;99.90
2387;DHT22;49473;50.772;8.768;2024-01-15T07:15:06;-0.10;99.90
2387;DHT22;49473;50.772;8.768;2024-01-15T07:17:33;-0.10;99.90
2387;DHT22;49473;50.772;8.768;2024-01-15T07:20:01;-0.10;99.90
2387;DHT22;49473;50.772;8.768;2024-01-15T07:22:29;-0.10;99.90
2387;DHT22;49473;50.772;8.768;2024-01-15T07:24:55;-0.10;99.90
2387;DHT22;49473;50.772;8.768;2024-01-15T07:27:22;-0.10;99.90
2387;DHT22;49473;50.772;8.768;2024-01-15T07:29:49;-0.10;99.90
2387;DHT22;49473;50.772;8.768;2024-01-15T07:32:17;-0.10;99.90
2387;DHT22;49473;50.772;8.768;2024-01-15T07:34:43;-0.10;99.90
2387;DHT22;49473;50.772;8.768;2024-01-15T07:37:10;-0.20;99.90
2387;DHT22;49473;50.772;8.768;2024-01-15T07:39:37;-0.20;99.90
2387;DHT22;49473;50.772;8.768;2024-01-15T07:42:04;-0.10;99.90
2387;DHT22;49473;50.772;8.768;2024-01-15T07:44:31;-0.20;99.90
2387;DHT22;49473;50.772;8.768;2024-01-15T07:46:57;-0.20;99.90
2387;DHT22;49473;50.772;8.768;2024-01-15T07:49:25;-0.10;99.90
2387;DHT22;49473;50.772;8.768;2024-01-15T07:51:52;-0.10;99.90
2387;DHT22;49473;50.772;8.768;2024-01-15T07:54:19;-0.20;99.90
2387;DHT22;49473;50.772;8.768;2024-01-15T07:56:55;-0.10;99.90
2387;DHT22;49473;50.772;8.768;2024-01-15T07:59:22;-0.10;99.90
2387;DHT22;49473;50.772;8.768;2024-01-15T08:01:49;-0.10;99.90
2387;DHT22;49473;50.772;8.768;2024-01-15T08:04:16;-0.20;99.90
2387;DHT22;49473;50.772;8.768;2024-01-15T08:06:44;-0.20;99.90
2387;DHT22;49473;50.772;8.768;2024-01-15T08:09:11;-0.20;99.90
2387;DHT22;49473;50.772;8.768;2024-01-15T08:11:39;-0.10;99.90
2387;DHT22;49473;50.772;8.768;2024-01-15T08:14:07;-0.10;99.90
2387;DHT22;49473;50.772;8.768;2024-01-15T08:16:34;-0.10;99.90
2387;DHT22;49473;50.772;8.768;2024-01-15T08:19:00;-0.10;99.90
2387;DHT22;49473;50.772;8.768;2024-01-15T08:21:27;0.00;99.90
2387;DHT22;49473;50.772;8.768;2024-01-15T08:23:56;0.00;99.90
2387;DHT22;49473;50.772;8.768;2024-01-15T08:26:23;-0.10;99.90
2387;DHT22;49473;50.772;8.768;2024-01-15T08:28:50;0.00;99.90
2387;DHT22;49473;50.772;8.768;2024-01-15T08:31:17;0.00;99.90
2387;DHT22;49473;50.772;8.768;2024-01-15T08:33:44;0.00;99.90
2387;DHT22;49473;50.772;8.768;2024-01-15T08:36:10;0.00;99.90
2387;DHT22;49473;50.772;8.768;2024-01-15T08:38:37;-0.10;99.90
2387;DHT22;49473;50.772;8.768;2024-01-15T08:41:05;-0.10;99.90
2387;DHT22;49473;50.772;8.768;2024-01-15T08:43:33;-0.10;99.90
2387;DHT22;49473;50.772;8.768;2024-01-15T08:46:00;-0.10;99.90
2387;DHT22;49473;50.772;8.768;2024-01-15T08:48:28;0.00;99.90
2387;DHT22;49473;50.772;8.768;2024-01-15T08:50:55;0.00;99.90
2387;DHT22;49473;50.772;8.768;2024-01-15T08:53:22;0.10;99.90
2387;DHT22;49473;50.772;8.768;2024-01-15T08:55:49;0.30;99.90
2387;DHT22;49473;50.772;8.768;2024-01-15T08:58:17;0.40;99.90
2387;DHT22;49473;50.772;8.768;2024-01-15T09:00:44;0.40;99.90
2387;DHT22;49473;50.772;8.768;2024-01-15T09:03:11;0.40;99.90
2387;DHT22;49473;50.772;8.768;2024-01-15T09:05:37;0.30;99.90
2387;DHT22;49473;50.772;8.768;2024-01-15T09:08:06;0.30;99.90
2387;DHT22;49473;50.772;8.768;2024-01-15T09:10:33;0.30;99.90
2387;DHT22;49473;50.772;8.768;2024-01-15T09:12:59;0.40;99.90
2387;DHT22;49473;50.772;8.768;2024-01-15T09:15:27;0.50;99.90
2387;DHT22;49473;50.772;8.768;2024-01-15T09:17:54;0.60;99.90
2387;DHT22;49473;50.772;8.768;2024-01-15T09:20:22;0.60;99.90
2387;DHT22;49473;50.772;8.768;2024-01-15T09:22:49;0.70;99.90
2387;DHT22;49473;50.772;8.768;2024-01-15T09:25:16;0.60;99.90
2387;DHT22;49473;50.772;8.768;2024-01-15T09:27:44;0.60;99.90
2387;DHT22;49473;50.772;8.768;2024-01-15T09:30:12;0.50;99.90
2387;DHT22;49473;50.772;8.768;2024-01-15T09:32:40;0.60;99.90
2387;DHT22;49473;50.772;8.768;2024-01-15T09:35:07;0.70;99.90
2387;DHT22;49473;50.772;8.768;2024-01-15T09:37:34;0.70;99.90
2387;DHT22;49473;50.772;8.768;2024-01-15T09:40:01;0.70;99.90
2387;DHT22;49473;50.772;8.768;2024-01-15T09:42:29;0.80;99.90
2387;DHT22;49473;50.772;8.768;2024-01-15T09:44:56;0.80;99.90
2387;DHT22;49473;50.772;8.768;2024-01-15T09:47:24;1.00;99.90
2387;DHT22;49473;50.772;8.768;2024-01-15T09:49:52;1.00;99.90
2387;DHT22;49473;50.772;8.768;2024-01-15T09:52:19;1.10;99.90
2387;DHT22;49473;50.772;8.768;2024-01-15T09:54:46;1.30;99.90
2387;DHT22;49473;50.772;8.768;2024-01-15T09:57:13;1.40;99.90
2387;DHT22;49473;50.772;8.768;2024-01-15T09:59:42;1.50;99.90
2387;DHT22;49473;50.772;8.768;2024-01-15T10:02:10;1.50;99.90
2387;DHT22;49473;50.772;8.768;2024-01-15T10:04:40;1.40;99.90
2387;DHT22;49473;50.772;8.768;2024-01-15T10:07:12;1.40;99.90
2387;DHT22;49473;50.772;8.768;2024-01-15T10:09:41;1.60;99.90
2387;DHT22;49473;50.772;8.768;2024-01-15T10:12:09;1.60;99.90
2387;DHT22;49473;50.772;8.768;2024-01-15T10:14:36;1.80;99.90
2387;DHT22;49473;50.772;8.768;2024-01-15T10:17:12;1.80;99.90
2387;DHT22;49473;50.772;8.768;2024-01-15T10:19:38;1.80;99.90
2387;DHT22;49473;50.772;8.768;2024-01-15T10:22:07;1.80;99.90
2387;DHT22;49473;50.772;8.768;2024-01-15T10:24:36;1.80;99.90
2387;DHT22;49473;50.772;8.768;2024-01-15T10:27:05;1.90;99.90
2387;DHT22;49473;50.772;8.768;2024-01-15T10:29:32;1.70;99.90
2387;DHT22;49473;50.772;8.768;2024-01-15T10:31:59;1.80;99.90
2387;DHT22;49473;50.772;8.768;2024-01-15T10:34:26;1.80;99.90
2387;DHT22;49473;50.772;8.768;2024-01-15T10:36:53;1.70;99.90
2387;DHT22;49473;50.772;8.768;2024-01-15T10:39:21;1.80;99.90
2387;DHT22;49473;50.772;8.768;2024-01-15T10:41:49;1.90;99.90
2387;DHT22;49473;50.772;8.768;2024-01-15T10:44:17;1.90;99.90
2387;DHT22;49473;50.772;8.768;2024-01-15T10:46:44;2.00;99.90
2387;DHT22;49473;50.772;8.768;2024-01-15T10:49:11;1.90;99.90
2387;DHT22;49473;50.772;8.768;2024-01-15T10:51:38;1.90;99.90
2387;DHT22;49473;50.772;8.768;2024-01-15T10:54:09;1.80;99.90
2387;DHT22;49473;50.772;8.768;2024-01-15T10:56:37;1.80;99.90
2387;DHT22;49473;50.772;8.768;2024-01-15T10:59:05;1.90;99.90
2387;DHT22;49473;50.772;8.768;2024-01-15T11:01:33;1.80;99.90
2387;DHT22;49473;50.772;8.768;2024-01-15T11:04:00;1.70;99.90
2387;DHT22;49473;50.772;8.768;2024-01-15T11:06:28;1.70;99.90
2387;DHT22;49473;50.772;8.768;2024-01-15T11:08:55;1.60;99.90
2387;DHT22;49473;50.772;8.768;2024-01-15T11:11:22;1.60;99.90
2387;DHT22;49473;50.772;8.768;2024-01-15T11:13:48;1.60;99.90
2387;DHT22;49473;50.772;8.768;2024-01-15T11:16:18;1.90;99.90
2387;DHT22;49473;50.772;8.768;2024-01-15T11:19:02;2.30;99.90
2387;DHT22;49473;50.772;8.768;2024-01-15T11:21:31;2.40;99.90
2387;DHT22;49473;50.772;8.768;2024-01-15T11:23:59;2.40;99.90
2387;DHT22;49473;50.772;8.768;2024-01-15T11:26:34;2.40;99.90
2387;DHT22;49473;50.772;8.768;2024-01-15T11:29:03;2.50;99.90
2387;DHT22;49473;50.772;8.768;2024-01-15T11:31:59;2.40;99.90
2387;DHT22;49473;50.772;8.768;2024-01-15T11:34:52;2.20;99.90
2387;DHT22;49473;50.772;8.768;2024-01-15T11:37:20;2.10;99.90
2387;DHT22;49473;50.772;8.768;2024-01-15T11:39:51;2.00;99.90
2387;DHT22;49473;50.772;8.768;2024-01-15T11:42:20;1.90;99.90
2387;DHT22;49473;50.772;8.768;2024-01-15T11:44:47;1.80;99.90
2387;DHT22;49473;50.772;8.768;2024-01-15T11:47:15;1.70;99.90
2387;DHT22;49473;50.772;8.768;2024-01-15T11:50:00;1.70;99.90
2387;DHT22;49473;50.772;8.768;2024-01-15T11:52:32;1.70;99.90
2387;DHT22;49473;50.772;8.768;2024-01-15T11:55:04;1.70;99.90
2387;DHT22;49473;50.772;8.768;2024-01-15T11:57:40;1.80;99.90
2387;DHT22;49473;50.772;8.768;2024-01-15T12:00:10;1.90;99.90
2387;DHT22;49473;50.772;8.768;2024-01-15T12:02:39;2.00;99.90
2387;DHT22;49473;50.772;8.768;2024-01-15T12:05:07;2.10;99.90
2387;DHT22;49473;50.772;8.768;2024-01-15T12:07:34;2.10;99.90
2387;DHT22;49473;50.772;8.768;2024-01-15T12:10:01;2.10;99.90
2387;DHT22;49473;50.772;8.768;2024-01-15T12:12:37;2.10;99.90
2387;DHT22;49473;50.772;8.768;2024-01-15T12:15:06;2.00;99.90
2387;DHT22;49473;50.772;8.768;2024-01-15T12:17:33;2.00;99.90
2387;DHT22;49473;50.772;8.768;2024-01-15T12:20:01;2.10;99.90
2387;DHT22;49473;50.772;8.768;2024-01-15T12:22:28;2.10;99.90
2387;DHT22;49473;50.772;8.768;2024-01-15T12:24:55;2.20;99.90
2387;DHT22;49473;50.772;8.768;2024-01-15T12:27:23;2.20;99.90
2387;DHT22;49473;50.772;8.768;2024-01-15T12:29:50;2.10;99.90
2387;DHT22;49473;50.772;8.768;2024-01-15T12:32:18;2.00;99.90
2387;DHT22;49473;50.772;8.768;2024-01-15T12:34:46;2.00;99.90
2387;DHT22;49473;50.772;8.768;2024-01-15T12:37:14;2.00;99.90
2387;DHT22;49473;50.772;8.768;2024-01-15T12:39:43;2.10;99.90
2387;DHT22;49473;50.772;8.768;2024-01-15T12:42:10;2.10;99.90
2387;DHT22;49473;50.772;8.768;2024-01-15T12:44:37;2.20;99.90
2387;DHT22;49473;50.772;8.768;2024-01-15T12:47:04;2.30;99.90
2387;DHT22;49473;50.772;8.768;2024-01-15T12:49:31;2.50;99.90
2387;DHT22;49473;50.772;8.768;2024-01-15T12:51:58;2.70;99.90
2387;DHT22;49473;50.772;8.768;2024-01-15T12:54:27;2.90;99.90
2387;DHT22;49473;50.772;8.768;2024-01-15T12:56:53;3.00;99.90
2387;DHT22;49473;50.772;8.768;2024-01-15T12:59:20;2.90;99.90
2387;DHT22;49473;50.772;8.768;2024-01-15T13:01:47;2.80;99.90
2387;DHT22;49473;50.772;8.768;2024-01-15T13:04:21;2.80;99.90
2387;DHT22;49473;50.772;8.768;2024-01-15T13:06:49;2.80;99.90
2387;DHT22;49473;50.772;8.768;2024-01-15T13:09:16;2.90;99.90
2387;DHT22;49473;50.772;8.768;2024-01-15T13:11:43;3.10;99.90
2387;DHT22;49473;50.772;8.768;2024-01-15T13:14:10;3.20;99.90
2387;DHT22;49473;50.772;8.768;2024-01-15T13:16:39;3.40;99.90
2387;DHT22;49473;50.772;8.768;2024-01-15T13:19:07;3.30;99.90
2387;DHT22;49473;50.772;8.768;2024-01-15T13:21:33;3.10;99.90
2387;DHT22;49473;50.772;8.768;2024-01-15T13:24:00;3.00;99.90
2387;DHT22;49473;50.772;8.768;2024-01-15T13:26:28;3.10;99.90
2387;DHT22;49473;50.772;8.768;2024-01-15T13:28:56;3.40;99.90
2387;DHT22;49473;50.772;8.768;2024-01-15T13:31:23;3.60;99.90
2387;DHT22;49473;50.772;8.768;2024-01-15T13:33:50;3.60;99.90
2387;DHT22;49473;50.772;8.768;2024-01-15T13:36:17;3.30;99.90
2387;DHT22;49473;50.772;8.768;2024-01-15T13:38:43;3.10;99.90
2387;DHT22;49473;50.772;8.768;2024-01-15T13:41:10;3.00;99.90
2387;DHT22;49473;50.772;8.768;2024-01-15T13:43:37;2.90;99.90
2387;DHT22;49473;50.772;8.768;2024-01-15T13:46:05;2.90;99.90
2387;DHT22;49473;50.772;8.768;2024-01-15T13:48:32;2.70;99.90
2387;DHT22;49473;50.772;8.768;2024-01-15T13:50:58;2.50;99.90
2387;DHT22;49473;50.772;8.768;2024-01-15T13:53:25;2.40;99.90
2387;DHT22;49473;50.772;8.768;2024-01-15T13:55:52;2.40;99.90
2387;DHT22;49473;50.772;8.768;2024-01-15T13:58:19;2.40;99.90
2387;DHT22;49473;50.772;8.768;2024-01-15T14:00:47;2.40;99.90
2387;DHT22;49473;50.772;8.768;2024-01-15T14:03:15;2.40;99.90
2387;DHT22;49473;50.772;8.768;2024-01-15T14:05:41;2.40;99.90
2387;DHT22;49473;50.772;8.768;2024-01-15T14:08:08;2.40;99.90
2387;DHT22;49473;50.772;8.768;2024-01-15T14:10:35;2.40;99.90
2387;DHT22;49473;50.772;8.768;2024-01-15T14:13:03;2.30;99.90
2387;DHT22;49473;50.772;8.768;2024-01-15T14:15:30;2.30;99.90
2387;DHT22;49473;50.772;8.768;2024-01-15T14:17:56;2.20;99.90
2387;DHT22;49473;50.772;8.768;2024-01-15T14:20:25;2.30;99.90
2387;DHT22;49473;50.772;8.768;2024-01-15T14:22:52;2.30;99.90
2387;DHT22;49473;50.772;8.768;2024-01-15T14:25:19;2.30;99.90
2387;DHT22;49473;50.772;8.768;2024-01-15T14:27:46;2.20;99.90
2387;DHT22;49473;50.772;8.768;2024-01-15T14:30:13;2.10;99.90
2387;DHT22;49473;50.772;8.768;2024-01-15T14:32:42;2.10;99.90
2387;DHT22;49473;50.772;8.768;2024-01-15T14:35:09;2.00;99.90
2387;DHT22;49473;50.772;8.768;2024-01-15T14:37:39;2.00;99.90
2387;DHT22;49473;50.772;8.768;2024-01-15T14:40:07;2.10;99.90
2387;DHT22;49473;50.772;8.768;2024-01-15T14:42:34;2.10;99.90
2387;DHT22;49473;50.772;8.768;2024-01-15T14:45:02;2.20;99.90
2387;DHT22;49473;50.772;8.768;2024-01-15T14:47:30;2.30;99.90
2387;DHT22;49473;50.772;8.768;2024-01-15T14:49:57;2.30;99.90
2387;DHT22;49473;50.772;8.768;2024-01-15T14:52:24;2.30;99.90
2387;DHT22;49473;50.772;8.768;2024-01-15T14:54:52;2.20;99.90
2387;DHT22;49473;50.772;8.768;2024-01-15T14:57:18;2.10;99.90
2387;DHT22;49473;50.772;8.768;2024-01-15T14:59:45;2.00;99.90
2387;DHT22;49473;50.772;8.768;2024-01-15T15:02:12;2.00;99.90
2387;DHT22;49473;50.772;8.768;2024-01-15T15:04:40;1.90;99.90
2387;DHT22;49473;50.772;8.768;2024-01-15T15:07:08;1.80;99.90
2387;DHT22;49473;50.772;8.768;2024-01-15T15:09:35;1.70;99.90
2387;DHT22;49473;50.772;8.768;2024-01-15T15:12:05;1.60;99.90
2387;DHT22;49473;50.772;8.768;2024-01-15T15:14:32;1.50;99.90
2387;DHT22;49473;50.772;8.768;2024-01-15T15:17:03;1.50;99.90
2387;DHT22;49473;50.772;8.768;2024-01-15T15:19:30;1.40;99.90
2387;DHT22;49473;50.772;8.768;2024-01-15T15:21:57;1.40;99.90
2387;DHT22;49473;50.772;8.768;2024-01-15T15:24:24;1.40;99.90
2387;DHT22;49473;50.772;8.768;2024-01-15T15:26:51;1.30;99.90
2387;DHT22;49473;50.772;8.768;2024-01-15T15:29:19;1.30;99.90
2387;DHT22;49473;50.772;8.768;2024-01-15T15:31:46;1.30;99.90
2387;DHT22;49473;50.772;8.768;2024-01-15T15:34:14;1.30;99.90
2387;DHT22;49473;50.772;8.768;2024-01-15T15:36:42;1.20;99.90
2387;DHT22;49473;50.772;8.768;2024-01-15T15:39:08;1.20;99.90
2387;DHT22;49473;50.772;8.768;2024-01-15T15:41:35;1.20;99.90
2387;DHT22;49473;50.772;8.768;2024-01-15T15:44:03;1.20;99.90
2387;DHT22;49473;50.772;8.768;2024-01-15T15:46:31;1.30;99.90
2387;DHT22;49473;50.772;8.768;2024-01-15T15:48:58;1.20;99.90
2387;DHT22;49473;50.772;8.768;2024-01-15T15:51:25;1.20;99.90
2387;DHT22;49473;50.772;8.768;2024-01-15T15:53:51;1.20;99.90
2387;DHT22;49473;50.772;8.768;2024-01-15T15:56:18;1.30;99.90